createdAt,value
2022-09-23T00:57:56.771Z,72.0
2022-09-23T01:17:56.776Z,72.5
2022-09-23T01:57:56.883Z,72.5
2022-09-23T02:37:56.894Z,73.0
2022-09-23T02:58:42.157Z,73.0
2022-09-23T03:17:56.816Z,73.5
2022-09-23T03:37:56.909Z,73.5
2022-09-23T03:57:56.920Z,73.5
2022-09-23T04:38:42.191Z,74.5
2022-09-23T05:17:56.940Z,75.0
2022-09-23T05:38:42.249Z,74.5
2022-09-23T05:57:56.951Z,75.5
2022-09-23T06:18:42.216Z,76.0
2022-09-23T06:37:56.983Z,76.0
2022-09-23T06:57:56.868Z,77.0
2022-09-23T07:17:56.884Z,77.0
2022-09-23T07:39:27.397Z,77.0
2022-09-23T07:58:42.157Z,76.5
2022-09-23T08:17:56.906Z,76.0
2022-09-23T08:37:56.921Z,74.0
2022-09-23T08:58:23.334Z,72.0
2022-09-23T09:17:56.960Z,71.0
2022-09-23T09:37:56.949Z,69.5
2022-09-23T09:57:56.902Z,68.5
2022-09-23T10:17:56.909Z,68.5
2022-09-23T10:37:56.919Z,65.5
2022-09-23T10:57:56.955Z,64.5
2022-09-23T11:17:56.959Z,63.0
2022-09-23T11:37:56.992Z,61.5
2022-09-23T11:57:56.995Z,60.5
2022-09-23T12:17:57.010Z,59.0
2022-09-23T12:37:57.016Z,57.0
2022-09-23T12:57:57.029Z,56.0
2022-09-23T13:17:57.035Z,55.5
2022-09-23T13:37:57.044Z,56.0
2022-09-23T13:57:57.071Z,55.5
2022-09-23T14:17:57.070Z,55.0
2022-09-23T14:37:57.107Z,56.0
2022-09-23T14:57:57.080Z,56.5
2022-09-23T15:17:57.085Z,57.0
2022-09-23T15:37:57.095Z,58.0
2022-09-23T15:57:57.106Z,59.0
2022-09-23T16:17:57.114Z,60.0
2022-09-23T16:37:57.133Z,61.0
2022-09-23T16:57:57.131Z,62.0
2022-09-23T17:17:57.136Z,63.0
2022-09-23T17:37:57.144Z,64.5
2022-09-23T17:57:57.149Z,65.5
2022-09-23T18:17:57.157Z,67.0
2022-09-23T18:37:57.182Z,68.5
2022-09-23T18:57:57.180Z,69.5
2022-09-23T19:17:57.202Z,70.0
2022-09-23T19:57:57.183Z,72.0
2022-09-23T21:37:57.232Z,76.5
2022-09-23T21:57:57.219Z,77.5
2022-09-23T22:37:57.241Z,78.0
2022-09-23T22:57:57.244Z,78.5
2022-09-23T23:17:57.245Z,79.5
2022-09-23T23:37:57.257Z,80.0
2022-09-23T23:57:57.264Z,80.5
